KADU

Audubon County Airport

Audubon, Iowa, USA
METAR KADU 230955Z AUTO 28004KT 10SM SCT011 OVC032 M02/M03 A3016 RMK AO2
Observed Flight Rules
Feb-23 @ 09:55 UTC (30 minutes ago) Visual Flight Rules
Wind Visibility Clouds
280° at 4 knots 10 miles
  • Scattered at 1,100' AGL
  • Overcast at 3,200' AGL
Temperatures Readings
Current -2°C / 28°F
Dewpoint -3°C / 27°F
Humidity 93%
Altimeter 30.16" Hg
Pressure 1021 hPa
Elevation 392
METAR KADU 230955Z AUTO 28004KT 10SM SCT011 OVC032 M02/M03 A3016 RMK AO2
Observed Flight Rules
Feb-23 @ 09:55 UTC
(30 minutes ago)
VFR
Wind Visibility
280° at 4 knots 10 miles
Clouds
  • Scattered at 1,100' AGL
  • Overcast at 3,200' AGL
Temperature Dewpoint
-2°C / 28°F -3°C / 27°F
Humidity Altimeter Pressure
93% 30.16" Hg 1021 hPa